createdAt,value
2018-10-09T00:00:35.293Z,16.60
2018-10-09T00:03:04.340Z,17.90
2018-10-09T00:05:33.302Z,16.00
2018-10-09T00:08:02.304Z,15.30
2018-10-09T00:10:31.710Z,15.30
2018-10-09T00:13:00.681Z,15.80
2018-10-09T00:15:29.724Z,18.20
2018-10-09T00:17:58.727Z,15.63
2018-10-09T00:20:27.971Z,14.60
2018-10-09T00:22:58.637Z,14.43
2018-10-09T00:25:27.623Z,15.70
2018-10-09T00:27:56.953Z,14.40
2018-10-09T00:30:26.503Z,13.00
2018-10-09T00:32:55.639Z,14.93
2018-10-09T00:35:24.730Z,13.87
2018-10-09T00:37:53.886Z,12.17
2018-10-09T00:40:22.861Z,14.70
2018-10-09T00:42:51.789Z,14.23
2018-10-09T00:45:20.807Z,14.53
2018-10-09T00:47:49.792Z,13.33
2018-10-09T00:50:18.754Z,14.27
2018-10-09T00:52:47.956Z,13.27
2018-10-09T00:55:16.838Z,13.93
2018-10-09T00:57:45.866Z,14.20
2018-10-09T01:00:14.818Z,14.40
2018-10-09T01:02:43.790Z,13.83
2018-10-09T01:05:12.770Z,15.53
2018-10-09T01:07:41.886Z,14.37
2018-10-09T01:10:10.846Z,14.47
2018-10-09T01:12:40.004Z,13.90
2018-10-09T01:15:08.966Z,15.07
2018-10-09T01:17:37.961Z,14.63
2018-10-09T01:20:07.185Z,13.60
2018-10-09T01:22:36.341Z,15.30
2018-10-09T01:25:05.341Z,14.10
2018-10-09T01:27:34.502Z,13.67
2018-10-09T01:30:03.515Z,13.10
2018-10-09T01:32:32.475Z,13.93
2018-10-09T01:35:01.483Z,14.87
2018-10-09T01:37:30.442Z,15.27
2018-10-09T01:39:59.410Z,13.50
2018-10-09T01:42:28.505Z,13.90
2018-10-09T01:44:57.492Z,16.73
2018-10-09T01:47:27.731Z,15.27
2018-10-09T01:49:56.702Z,15.20
2018-10-09T01:52:25.817Z,15.50
2018-10-09T01:54:54.801Z,16.93
2018-10-09T01:57:23.775Z,16.40
2018-10-09T01:59:52.758Z,16.67
2018-10-09T02:02:21.734Z,15.97
2018-10-09T02:04:50.713Z,16.70
2018-10-09T02:07:19.702Z,15.50
2018-10-09T02:09:48.681Z,16.80
2018-10-09T02:12:17.704Z,16.50
2018-10-09T02:14:46.698Z,16.77
2018-10-09T02:17:15.665Z,17.20
2018-10-09T02:19:44.927Z,18.40
2018-10-09T02:22:14.002Z,16.30
2018-10-09T02:24:42.950Z,16.80
2018-10-09T02:27:11.971Z,16.13
2018-10-09T02:29:40.945Z,18.03
2018-10-09T02:32:09.923Z,16.20
2018-10-09T02:34:38.850Z,17.03
2018-10-09T02:37:07.826Z,16.00
2018-10-09T02:39:36.797Z,17.33
2018-10-09T02:42:05.793Z,16.87
2018-10-09T02:44:34.778Z,17.27
2018-10-09T02:47:03.893Z,17.63
2018-10-09T02:49:33.085Z,17.60
2018-10-09T02:52:02.216Z,18.17
2018-10-09T02:54:31.238Z,17.47
2018-10-09T02:57:00.161Z,16.17
2018-10-09T02:59:29.130Z,16.47
2018-10-09T03:01:58.218Z,17.60
2018-10-09T03:04:27.202Z,17.47
2018-10-09T03:06:56.134Z,16.70
2018-10-09T03:09:25.115Z,16.37
2018-10-09T03:11:54.090Z,16.70
2018-10-09T03:14:23.082Z,17.50
2018-10-09T03:16:52.107Z,16.03
2018-10-09T03:19:21.030Z,16.77
2018-10-09T03:21:51.688Z,17.90
2018-10-09T03:24:20.658Z,18.10
2018-10-09T03:26:49.814Z,16.87
2018-10-09T03:29:18.777Z,16.80
2018-10-09T03:31:47.763Z,15.67
2018-10-09T03:34:16.756Z,16.60
2018-10-09T03:36:45.713Z,15.50
2018-10-09T03:39:14.681Z,18.73
2018-10-09T03:41:43.742Z,17.33
2018-10-09T03:44:12.713Z,16.07
2018-10-09T03:46:41.698Z,17.23
2018-10-09T03:49:10.760Z,16.07
2018-10-09T03:51:39.978Z,16.23
2018-10-09T03:54:09.112Z,16.47
2018-10-09T03:56:38.125Z,17.33
2018-10-09T03:59:07.098Z,16.93
2018-10-09T04:01:36.105Z,18.90
2018-10-09T04:04:05.057Z,16.67
2018-10-09T04:06:34.021Z,17.47
2018-10-09T04:09:03.119Z,20.00
2018-10-09T04:11:32.077Z,19.63
2018-10-09T04:14:01.088Z,19.63
2018-10-09T04:16:30.038Z,19.80
2018-10-09T04:18:59.079Z,19.10
2018-10-09T04:21:28.030Z,19.53
2018-10-09T04:23:57.017Z,20.03
2018-10-09T04:26:26.038Z,18.37
2018-10-09T04:28:54.975Z,17.90
2018-10-09T04:31:23.925Z,16.73
2018-10-09T04:33:53.154Z,17.03
2018-10-09T04:36:22.132Z,19.73
2018-10-09T04:38:51.122Z,19.00
2018-10-09T04:41:20.114Z,17.57
2018-10-09T04:43:49.097Z,33.90
2018-10-09T04:46:18.199Z,17.97
2018-10-09T04:48:47.345Z,16.33
2018-10-09T04:51:16.337Z,16.57
2018-10-09T04:53:45.372Z,17.47
2018-10-09T04:56:14.357Z,17.60
2018-10-09T04:58:43.318Z,16.20
2018-10-09T05:01:12.324Z,17.67
2018-10-09T05:03:41.265Z,17.60
2018-10-09T05:06:10.289Z,17.50
2018-10-09T05:08:39.290Z,17.27
2018-10-09T05:11:08.239Z,18.60
2018-10-09T05:13:37.384Z,20.77
2018-10-09T05:16:06.338Z,18.47
2018-10-09T05:18:35.451Z,21.73
2018-10-09T05:21:04.410Z,19.47
2018-10-09T05:23:33.413Z,19.87
2018-10-09T05:26:02.417Z,21.20
2018-10-09T05:28:31.545Z,23.17
2018-10-09T05:31:00.548Z,19.73
2018-10-09T05:33:29.554Z,19.23
2018-10-09T05:35:58.614Z,21.10
2018-10-09T05:38:27.565Z,19.30
2018-10-09T05:40:56.565Z,19.10
2018-10-09T05:43:25.522Z,19.07
2018-10-09T05:45:54.577Z,19.10
2018-10-09T05:48:23.937Z,19.73
2018-10-09T05:50:52.849Z,17.13
2018-10-09T05:53:21.802Z,17.97
2018-10-09T05:55:50.754Z,18.87
2018-10-09T05:58:19.841Z,19.60
2018-10-09T06:00:48.832Z,20.73
2018-10-09T06:03:17.972Z,22.23
2018-10-09T06:05:47.130Z,20.43
2018-10-09T06:08:16.352Z,19.97
2018-10-09T06:10:45.389Z,23.40
2018-10-09T06:13:14.590Z,22.27
2018-10-09T06:15:43.593Z,22.13
2018-10-09T06:18:12.618Z,22.07
2018-10-09T06:20:41.562Z,24.23
2018-10-09T06:23:10.545Z,20.87
2018-10-09T06:25:39.497Z,22.50
2018-10-09T06:28:08.533Z,22.10
2018-10-09T06:30:37.466Z,19.70
2018-10-09T06:33:06.503Z,21.30
2018-10-09T06:35:35.774Z,21.23
2018-10-09T06:38:05.278Z,21.13
2018-10-09T06:40:34.223Z,20.90
2018-10-09T06:43:03.245Z,22.50
2018-10-09T06:45:32.414Z,19.93
2018-10-09T06:48:01.320Z,23.27
2018-10-09T06:50:30.258Z,20.57
2018-10-09T06:52:59.218Z,19.80
2018-10-09T06:55:28.826Z,20.87
2018-10-09T06:57:57.782Z,20.93
2018-10-09T07:00:26.807Z,21.17
2018-10-09T07:02:55.761Z,19.77
2018-10-09T07:05:24.711Z,20.93
2018-10-09T07:07:53.839Z,20.10
2018-10-09T07:10:22.787Z,20.43
2018-10-09T07:12:51.763Z,19.13
2018-10-09T07:15:20.719Z,19.47
2018-10-09T07:17:49.721Z,20.80
2018-10-09T07:20:18.666Z,21.37
2018-10-09T07:22:47.673Z,21.53
2018-10-09T07:25:16.786Z,23.63
2018-10-09T07:27:45.822Z,22.13
2018-10-09T07:30:14.791Z,23.20
2018-10-09T07:32:43.862Z,27.20
2018-10-09T07:35:12.777Z,30.43
2018-10-09T07:37:41.914Z,30.43
2018-10-09T07:40:10.827Z,30.90
2018-10-09T07:42:39.774Z,32.00
2018-10-09T07:45:09.100Z,31.57
2018-10-09T07:47:38.025Z,32.07
2018-10-09T07:50:07.386Z,31.70
2018-10-09T07:52:36.337Z,31.40
2018-10-09T07:55:05.387Z,29.00
2018-10-09T07:57:34.414Z,29.50
2018-10-09T08:00:03.614Z,30.50
2018-10-09T08:02:32.586Z,28.30
2018-10-09T08:05:01.556Z,29.70
2018-10-09T08:07:30.552Z,29.87
2018-10-09T08:09:59.538Z,31.30
2018-10-09T08:12:28.651Z,29.60
2018-10-09T08:14:57.614Z,30.67
2018-10-09T08:17:26.655Z,29.13
2018-10-09T08:19:55.817Z,28.53
2018-10-09T08:22:24.884Z,28.87
2018-10-09T08:24:53.830Z,27.73
2018-10-09T08:27:22.825Z,29.83
2018-10-09T08:29:51.821Z,29.40
2018-10-09T08:32:20.802Z,29.83
2018-10-09T08:34:50.107Z,30.23
2018-10-09T08:37:19.045Z,32.07
2018-10-09T08:39:48.096Z,31.13
2018-10-09T08:42:17.094Z,30.73
2018-10-09T08:44:46.123Z,31.47
2018-10-09T08:47:15.245Z,32.00
2018-10-09T08:49:44.218Z,30.53
2018-10-09T08:52:13.195Z,31.10
2018-10-09T08:54:42.391Z,30.43
2018-10-09T08:57:11.395Z,30.20
2018-10-09T08:59:40.506Z,29.40
2018-10-09T09:02:09.474Z,28.17
2018-10-09T09:04:38.537Z,30.67
2018-10-09T09:07:07.502Z,29.27
2018-10-09T09:09:36.553Z,30.40
2018-10-09T09:12:05.552Z,30.50
2018-10-09T09:14:34.642Z,29.03
2018-10-09T09:17:03.979Z,27.40
2018-10-09T09:19:33.086Z,30.03
2018-10-09T09:22:02.106Z,29.33
2018-10-09T09:24:31.106Z,30.83
2018-10-09T09:27:00.170Z,29.20
2018-10-09T09:29:29.082Z,30.73
2018-10-09T09:31:58.073Z,29.43
2018-10-09T09:34:27.022Z,32.13
2018-10-09T09:36:56.139Z,30.03
2018-10-09T09:39:25.127Z,30.63
2018-10-09T09:41:54.180Z,29.00
2018-10-09T09:44:23.298Z,32.43
2018-10-09T09:46:52.306Z,30.40
2018-10-09T09:49:21.274Z,31.20
2018-10-09T09:51:50.364Z,31.43
2018-10-09T09:54:19.325Z,31.30
2018-10-09T09:56:48.294Z,29.97
2018-10-09T09:59:17.367Z,29.20
2018-10-09T10:01:46.300Z,29.20
2018-10-09T10:04:15.376Z,31.00
2018-10-09T10:06:44.399Z,30.00
2018-10-09T10:09:13.427Z,31.00
2018-10-09T10:11:42.364Z,30.97
2018-10-09T10:14:11.339Z,28.03
2018-10-09T10:16:40.307Z,30.23
2018-10-09T10:19:09.251Z,29.90
2018-10-09T10:21:38.349Z,29.77
2018-10-09T10:24:07.363Z,30.07
2018-10-09T10:26:36.322Z,29.10
2018-10-09T10:29:05.970Z,29.30
2018-10-09T10:31:34.945Z,29.13
2018-10-09T10:34:04.018Z,29.20
2018-10-09T10:36:33.019Z,27.90
2018-10-09T10:39:02.238Z,27.60
2018-10-09T10:41:31.238Z,27.37
2018-10-09T10:44:00.193Z,26.93
2018-10-09T10:46:34.682Z,27.47
2018-10-09T10:49:06.312Z,26.67
2018-10-09T10:51:35.457Z,29.07
2018-10-09T10:54:04.488Z,28.10
2018-10-09T10:56:33.821Z,32.17
2018-10-09T10:59:03.132Z,29.07
2018-10-09T11:01:32.256Z,28.70
2018-10-09T11:04:01.306Z,29.27
2018-10-09T11:06:30.277Z,29.27
2018-10-09T11:08:59.234Z,29.30
2018-10-09T11:11:28.259Z,27.17
2018-10-09T11:13:57.317Z,29.90
2018-10-09T11:16:26.457Z,27.00
2018-10-09T11:18:56.386Z,27.53
2018-10-09T11:21:25.673Z,24.17
2018-10-09T11:23:54.713Z,23.47
2018-10-09T11:26:23.684Z,24.90
2018-10-09T11:28:52.694Z,27.57
2018-10-09T11:31:21.911Z,25.87
2018-10-09T11:33:50.886Z,25.10
2018-10-09T11:36:19.910Z,24.87
2018-10-09T11:38:48.879Z,27.40
2018-10-09T11:41:17.870Z,26.30
2018-10-09T11:43:46.873Z,24.17
2018-10-09T11:46:16.945Z,24.60
2018-10-09T11:48:45.908Z,24.77
2018-10-09T11:51:14.886Z,25.30
2018-10-09T11:53:43.902Z,23.43
2018-10-09T11:56:12.864Z,22.10
2018-10-09T11:58:42.175Z,23.60
2018-10-09T12:01:11.171Z,23.80
2018-10-09T12:03:40.378Z,24.47
2018-10-09T12:06:09.370Z,24.07
2018-10-09T12:08:38.397Z,26.23
2018-10-09T12:11:07.409Z,24.30
2018-10-09T12:13:36.502Z,23.20
2018-10-09T12:16:05.493Z,24.10
2018-10-09T12:18:34.845Z,24.83
2018-10-09T12:21:04.214Z,25.17
2018-10-09T12:23:33.229Z,25.10
2018-10-09T12:26:02.371Z,23.50
2018-10-09T12:28:31.486Z,24.20
2018-10-09T12:31:00.553Z,23.50
2018-10-09T12:33:31.602Z,23.60
2018-10-09T12:36:00.914Z,25.07
2018-10-09T12:38:29.910Z,24.90
2018-10-09T12:40:58.762Z,23.97
2018-10-09T12:43:27.710Z,24.90
2018-10-09T12:45:56.649Z,25.70
2018-10-09T12:48:25.632Z,24.13
2018-10-09T12:50:54.693Z,24.47
2018-10-09T12:53:24.090Z,24.07
2018-10-09T12:55:53.225Z,24.40
2018-10-09T12:58:22.260Z,24.07
2018-10-09T13:00:51.176Z,25.63
2018-10-09T13:03:20.143Z,23.80
2018-10-09T13:05:49.130Z,26.07
2018-10-09T13:08:18.141Z,24.57
2018-10-09T13:10:47.354Z,21.90
2018-10-09T13:13:16.332Z,23.20
2018-10-09T13:15:45.345Z,24.50
2018-10-09T13:18:14.271Z,23.60
2018-10-09T13:20:43.270Z,23.10
2018-10-09T13:23:12.220Z,22.50
2018-10-09T13:25:41.145Z,22.20
2018-10-09T13:28:10.327Z,23.10
2018-10-09T13:30:39.292Z,22.80
2018-10-09T13:33:08.546Z,21.23
2018-10-09T13:35:37.563Z,21.67
2018-10-09T13:38:06.511Z,22.13
2018-10-09T13:40:35.546Z,21.67
2018-10-09T13:43:04.495Z,22.70
2018-10-09T13:45:33.520Z,23.57
2018-10-09T13:48:03.163Z,23.10
2018-10-09T13:50:32.155Z,22.70
2018-10-09T13:53:01.030Z,22.13
2018-10-09T13:55:30.322Z,20.53
2018-10-09T13:57:59.269Z,21.73
2018-10-09T14:00:28.229Z,20.20
2018-10-09T14:02:57.165Z,20.70
2018-10-09T14:05:26.094Z,19.43
2018-10-09T14:07:55.088Z,20.67
2018-10-09T14:10:24.050Z,19.20
2018-10-09T14:12:53.002Z,19.00
2018-10-09T14:15:22.148Z,18.10
2018-10-09T14:17:51.129Z,18.87
2018-10-09T14:20:21.195Z,20.17
2018-10-09T14:22:50.500Z,18.73
2018-10-09T14:25:19.829Z,17.33
2018-10-09T14:27:48.917Z,19.03
2018-10-09T14:30:17.858Z,18.30
2018-10-09T14:32:46.854Z,18.23
2018-10-09T14:35:15.856Z,18.23
2018-10-09T14:37:44.822Z,17.43
2018-10-09T14:40:13.922Z,16.47
2018-10-09T14:42:42.842Z,16.67
2018-10-09T14:45:11.810Z,15.70
2018-10-09T14:47:40.756Z,18.07
2018-10-09T14:50:09.715Z,16.20
2018-10-09T14:52:38.642Z,16.60
2018-10-09T14:55:07.633Z,17.07
2018-10-09T14:57:36.599Z,15.30
2018-10-09T15:00:06.571Z,15.90
2018-10-09T15:02:35.539Z,16.40
2018-10-09T15:05:04.930Z,15.07
2018-10-09T15:07:33.906Z,14.57
2018-10-09T15:10:02.879Z,14.20
2018-10-09T15:12:31.957Z,14.50
2018-10-09T15:15:00.952Z,14.93
2018-10-09T15:17:29.987Z,14.47
2018-10-09T15:19:58.862Z,14.77
2018-10-09T15:22:27.851Z,13.93
2018-10-09T15:24:56.781Z,13.53
2018-10-09T15:27:26.053Z,14.67
2018-10-09T15:29:54.978Z,15.70
2018-10-09T15:32:23.895Z,15.70
2018-10-09T15:34:52.889Z,14.80
2018-10-09T15:37:21.900Z,13.80
2018-10-09T15:39:50.873Z,11.10
2018-10-09T15:42:19.826Z,10.07
2018-10-09T15:44:48.898Z,8.60
2018-10-09T15:47:17.924Z,8.43
2018-10-09T15:49:46.777Z,9.30
2018-10-09T15:52:15.833Z,8.30
2018-10-09T15:54:44.798Z,9.17
2018-10-09T15:57:13.763Z,9.00
2018-10-09T15:59:42.684Z,9.20
2018-10-09T16:02:12.014Z,8.70
2018-10-09T16:04:40.949Z,9.83
2018-10-09T16:07:09.868Z,8.40
2018-10-09T16:09:38.843Z,8.60
2018-10-09T16:12:07.770Z,9.53
2018-10-09T16:14:36.742Z,7.90
2018-10-09T16:17:05.685Z,9.40
2018-10-09T16:19:34.602Z,8.53
2018-10-09T16:22:03.537Z,9.30
2018-10-09T16:24:32.473Z,9.87
2018-10-09T16:27:01.425Z,9.20
2018-10-09T16:29:30.338Z,9.50
2018-10-09T16:31:59.311Z,9.20
2018-10-09T16:34:28.242Z,8.63
2018-10-09T16:36:57.221Z,10.97
2018-10-09T16:39:26.136Z,10.50
2018-10-09T16:41:55.141Z,9.30
2018-10-09T16:44:24.029Z,8.90
2018-10-09T16:46:53.018Z,9.80
2018-10-09T16:49:22.421Z,9.50
2018-10-09T16:51:51.371Z,10.50
2018-10-09T16:54:20.289Z,9.77
2018-10-09T16:56:49.271Z,9.97
2018-10-09T16:59:18.373Z,10.10
2018-10-09T17:01:47.302Z,9.93
2018-10-09T17:04:16.230Z,10.40
2018-10-09T17:06:45.141Z,9.07
2018-10-09T17:09:14.389Z,10.20
2018-10-09T17:11:43.321Z,9.43
2018-10-09T17:14:12.696Z,9.57
2018-10-09T17:16:41.733Z,10.03
2018-10-09T17:19:10.910Z,9.87
2018-10-09T17:21:39.906Z,10.60
2018-10-09T17:24:08.793Z,11.50
2018-10-09T17:26:37.748Z,10.60
2018-10-09T17:29:06.692Z,10.87
2018-10-09T17:31:35.709Z,9.53
2018-10-09T17:34:04.654Z,10.40
2018-10-09T17:36:33.593Z,11.47
2018-10-09T17:39:02.808Z,12.17
2018-10-09T17:41:31.773Z,13.00
2018-10-09T17:44:00.713Z,13.70
2018-10-09T17:46:29.767Z,15.80
2018-10-09T17:48:58.626Z,17.10
2018-10-09T17:51:27.538Z,18.57
2018-10-09T17:53:56.591Z,14.27
2018-10-09T17:56:25.520Z,14.47
2018-10-09T17:58:54.582Z,13.20
2018-10-09T18:01:23.498Z,12.03
2018-10-09T18:03:52.495Z,12.97
2018-10-09T18:06:21.431Z,11.33
2018-10-09T18:08:50.670Z,13.27
2018-10-09T18:11:19.576Z,12.17
2018-10-09T18:13:48.498Z,12.77
2018-10-09T18:16:17.434Z,11.97
2018-10-09T18:18:46.386Z,12.53
2018-10-09T18:21:15.366Z,12.73
2018-10-09T18:23:44.347Z,12.17
2018-10-09T18:26:13.450Z,12.10
2018-10-09T18:28:42.374Z,12.30
2018-10-09T18:31:11.304Z,13.70
2018-10-09T18:33:40.235Z,13.23
2018-10-09T18:36:09.173Z,14.20
2018-10-09T18:38:38.102Z,14.83
2018-10-09T18:41:07.058Z,14.40
2018-10-09T18:43:35.941Z,13.43
2018-10-09T18:46:04.916Z,16.20
2018-10-09T18:48:33.861Z,18.00
2018-10-09T18:51:02.933Z,16.33
2018-10-09T18:53:31.878Z,17.40
2018-10-09T18:56:01.125Z,50.13
2018-10-09T18:58:30.035Z,50.77
2018-10-09T19:00:59.117Z,58.03
2018-10-09T19:03:28.078Z,40.60
2018-10-09T19:05:57.052Z,26.27
2018-10-09T19:08:25.978Z,18.30
2018-10-09T19:10:55.001Z,15.90
2018-10-09T19:13:23.902Z,16.27
2018-10-09T19:15:52.894Z,19.27
2018-10-09T19:18:22.970Z,18.83
2018-10-09T19:20:51.913Z,19.40
2018-10-09T19:23:21.146Z,17.30
2018-10-09T19:25:50.102Z,16.67
2018-10-09T19:28:19.131Z,16.30
2018-10-09T19:30:48.087Z,17.33
2018-10-09T19:33:17.182Z,14.67
2018-10-09T19:35:46.136Z,15.73
2018-10-09T19:38:15.064Z,15.07
2018-10-09T19:40:44.110Z,14.40
2018-10-09T19:43:13.067Z,15.07
2018-10-09T19:45:42.083Z,16.30
2018-10-09T19:48:11.028Z,14.83
2018-10-09T19:50:40.003Z,14.20
2018-10-09T19:53:08.940Z,16.30
2018-10-09T19:55:38.079Z,15.60
2018-10-09T19:58:07.012Z,13.97
2018-10-09T20:00:35.987Z,15.80
2018-10-09T20:03:05.222Z,15.70
2018-10-09T20:05:34.277Z,17.23
2018-10-09T20:08:03.237Z,16.30
2018-10-09T20:10:32.264Z,17.60
2018-10-09T20:13:01.162Z,15.67
2018-10-09T20:15:30.074Z,16.67
2018-10-09T20:17:59.018Z,16.93
2018-10-09T20:20:28.002Z,16.30
2018-10-09T20:22:57.017Z,17.07
2018-10-09T20:25:26.005Z,16.67
2018-10-09T20:27:55.073Z,19.60
2018-10-09T20:30:24.166Z,17.40
2018-10-09T20:32:53.118Z,16.00
2018-10-09T20:35:22.150Z,17.30
2018-10-09T20:37:51.224Z,17.80
2018-10-09T20:40:20.186Z,18.70
2018-10-09T20:42:49.142Z,16.70
2018-10-09T20:45:18.057Z,17.20
2018-10-09T20:47:47.118Z,19.03
2018-10-09T20:50:16.182Z,17.73
2018-10-09T20:52:45.109Z,17.07
2018-10-09T20:55:14.051Z,15.60
2018-10-09T20:57:42.988Z,19.17
2018-10-09T21:00:11.933Z,18.17
2018-10-09T21:02:40.842Z,17.40
2018-10-09T21:05:09.941Z,17.83
2018-10-09T21:07:38.861Z,19.57
2018-10-09T21:10:07.842Z,18.07
2018-10-09T21:12:36.840Z,20.03
2018-10-09T21:15:05.930Z,17.80
2018-10-09T21:17:34.976Z,20.20
2018-10-09T21:20:03.822Z,20.80
2018-10-09T21:22:32.757Z,21.93
2018-10-09T21:25:01.666Z,22.13
2018-10-09T21:27:30.617Z,21.40
2018-10-09T21:29:59.659Z,21.13
2018-10-09T21:32:28.534Z,21.77
2018-10-09T21:34:57.501Z,21.30
2018-10-09T21:37:26.414Z,23.50
2018-10-09T21:39:55.447Z,23.07
2018-10-09T21:42:24.522Z,22.70
2018-10-09T21:44:53.600Z,22.93
2018-10-09T21:47:22.526Z,22.63
2018-10-09T21:49:51.454Z,21.87
2018-10-09T21:52:20.393Z,21.97
2018-10-09T21:54:49.338Z,23.20
2018-10-09T21:57:18.269Z,21.60
2018-10-09T21:59:47.218Z,22.60
2018-10-09T22:02:16.153Z,23.27
2018-10-09T22:04:45.105Z,22.00
2018-10-09T22:07:16.368Z,22.30
2018-10-09T22:09:45.472Z,22.20
2018-10-09T22:12:14.742Z,23.17
2018-10-09T22:14:43.662Z,21.77
2018-10-09T22:17:12.626Z,21.00
2018-10-09T22:19:41.844Z,20.13
2018-10-09T22:22:10.748Z,22.57
2018-10-09T22:24:39.745Z,21.20
2018-10-09T22:27:08.708Z,21.73
2018-10-09T22:29:37.650Z,23.30
2018-10-09T22:32:06.558Z,23.57
2018-10-09T22:34:35.486Z,23.20
2018-10-09T22:37:04.414Z,22.97
2018-10-09T22:39:33.363Z,24.00
2018-10-09T22:42:02.277Z,22.97
2018-10-09T22:44:31.364Z,22.60
2018-10-09T22:47:00.288Z,23.80
2018-10-09T22:49:29.526Z,22.73
2018-10-09T22:51:58.509Z,24.20
2018-10-09T22:54:27.425Z,24.10
2018-10-09T22:56:56.610Z,23.23
2018-10-09T22:59:26.204Z,21.70
2018-10-09T23:01:55.262Z,24.37
2018-10-09T23:04:24.184Z,23.03
2018-10-09T23:06:53.159Z,23.90
2018-10-09T23:09:22.091Z,23.83
2018-10-09T23:11:51.142Z,23.17
2018-10-09T23:14:20.082Z,24.60
2018-10-09T23:16:49.184Z,24.70
2018-10-09T23:19:18.110Z,22.53
2018-10-09T23:21:47.054Z,25.40
2018-10-09T23:24:15.965Z,23.20
2018-10-09T23:26:44.894Z,22.50
2018-10-09T23:29:13.841Z,23.23
2018-10-09T23:31:43.110Z,21.63
2018-10-09T23:34:12.109Z,23.03
2018-10-09T23:36:41.014Z,24.23
2018-10-09T23:39:09.942Z,25.20
2018-10-09T23:41:38.858Z,23.50
2018-10-09T23:44:07.828Z,23.73
2018-10-09T23:46:36.731Z,24.47
2018-10-09T23:49:06.063Z,25.20
2018-10-09T23:51:35.005Z,23.17
2018-10-09T23:54:03.935Z,25.20
2018-10-09T23:56:32.873Z,24.07
2018-10-09T23:59:01.966Z,22.80
